createdAt,value
2018-09-23T00:00:21.891Z,0.00
2018-09-23T00:01:21.821Z,0.00
2018-09-23T00:02:21.839Z,0.00
2018-09-23T00:03:21.800Z,0.00
2018-09-23T00:04:21.812Z,0.00
2018-09-23T00:05:21.820Z,0.00
2018-09-23T00:06:21.767Z,0.00
2018-09-23T00:07:21.754Z,0.00
2018-09-23T00:08:21.743Z,0.00
2018-09-23T00:09:21.758Z,0.00
2018-09-23T00:10:21.747Z,0.00
2018-09-23T00:11:21.709Z,0.00
2018-09-23T00:12:21.731Z,0.00
2018-09-23T00:13:21.688Z,0.00
2018-09-23T00:14:21.680Z,0.00
2018-09-23T00:15:21.689Z,0.00
2018-09-23T00:16:21.890Z,0.00
2018-09-23T00:17:21.707Z,0.00
2018-09-23T00:18:21.632Z,0.00
2018-09-23T00:19:21.621Z,0.00
2018-09-23T00:20:21.634Z,0.00
2018-09-23T00:21:21.637Z,0.00
2018-09-23T00:22:21.621Z,0.00
2018-09-23T00:23:21.588Z,0.00
2018-09-23T00:24:21.570Z,0.00
2018-09-23T00:25:21.623Z,0.00
2018-09-23T00:26:21.543Z,0.00
2018-09-23T00:27:21.531Z,0.00
2018-09-23T00:28:21.519Z,0.00
2018-09-23T00:29:21.590Z,0.00
2018-09-23T00:30:21.622Z,0.00
2018-09-23T00:31:21.510Z,0.00
2018-09-23T00:32:21.475Z,0.00
2018-09-23T00:33:21.463Z,0.00
2018-09-23T00:34:21.453Z,0.00
2018-09-23T00:35:21.441Z,0.00
2018-09-23T00:36:21.462Z,0.00
2018-09-23T00:37:21.418Z,0.00
2018-09-23T00:38:21.408Z,0.00
2018-09-23T00:39:21.396Z,0.00
2018-09-23T00:40:21.386Z,0.00
2018-09-23T00:41:21.403Z,0.00
2018-09-23T00:42:21.363Z,0.00
2018-09-23T00:43:21.352Z,0.00
2018-09-23T00:44:21.342Z,0.00
2018-09-23T00:45:21.368Z,0.00
2018-09-23T00:46:21.319Z,0.00
2018-09-23T00:47:21.308Z,0.00
2018-09-23T00:48:21.331Z,0.00
2018-09-23T00:49:21.285Z,0.00
2018-09-23T00:50:21.316Z,0.00
2018-09-23T00:51:21.269Z,0.00
2018-09-23T00:52:21.252Z,0.00
2018-09-23T00:53:21.245Z,0.00
2018-09-23T00:54:21.236Z,0.00
2018-09-23T00:55:21.262Z,0.00
2018-09-23T00:56:21.211Z,0.00
2018-09-23T00:57:21.274Z,0.00
2018-09-23T00:58:21.186Z,0.00
2018-09-23T00:59:21.180Z,0.00
2018-09-23T01:00:21.163Z,0.00
2018-09-23T01:01:21.156Z,0.00
2018-09-23T01:02:21.166Z,0.00
2018-09-23T01:03:21.134Z,0.00
2018-09-23T01:04:21.119Z,0.00
2018-09-23T01:05:21.108Z,0.00
2018-09-23T01:06:21.121Z,0.00
2018-09-23T01:07:21.085Z,0.00
2018-09-23T01:08:21.099Z,0.00
2018-09-23T01:09:21.065Z,0.00
2018-09-23T01:10:21.051Z,0.00
2018-09-23T01:11:21.039Z,0.00
2018-09-23T01:12:21.044Z,0.00
2018-09-23T01:13:21.166Z,0.00
2018-09-23T01:14:21.079Z,0.00
2018-09-23T01:15:20.995Z,0.00
2018-09-23T01:16:21.003Z,0.00
2018-09-23T01:17:20.972Z,0.00
2018-09-23T01:18:20.988Z,0.00
2018-09-23T01:19:20.952Z,0.00
2018-09-23T01:20:20.938Z,0.00
2018-09-23T01:21:20.928Z,0.00
2018-09-23T01:22:20.916Z,0.00
2018-09-23T01:23:20.939Z,0.00
2018-09-23T01:24:20.893Z,0.00
2018-09-23T01:25:20.885Z,0.00
2018-09-23T01:26:20.873Z,0.00
2018-09-23T01:27:20.859Z,0.00
2018-09-23T01:28:20.884Z,0.00
2018-09-23T01:29:20.839Z,0.00
2018-09-23T01:30:20.828Z,0.00
2018-09-23T01:31:20.816Z,0.00
2018-09-23T01:32:20.805Z,0.00
2018-09-23T01:33:20.820Z,0.00
2018-09-23T01:34:20.783Z,0.00
2018-09-23T01:35:20.771Z,0.00
2018-09-23T01:36:20.761Z,0.00
2018-09-23T01:37:20.749Z,0.00
2018-09-23T01:38:20.863Z,0.00
2018-09-23T01:39:20.725Z,0.00
2018-09-23T01:40:20.715Z,0.00
2018-09-23T01:41:20.726Z,0.00
2018-09-23T01:42:20.693Z,0.00
2018-09-23T01:43:20.708Z,0.00
2018-09-23T01:44:20.672Z,0.00
2018-09-23T01:45:20.665Z,0.00
2018-09-23T01:46:20.649Z,0.00
2018-09-23T01:47:20.641Z,0.00
2018-09-23T01:48:20.675Z,0.00
2018-09-23T01:49:20.617Z,0.00
2018-09-23T01:50:20.603Z,0.00
2018-09-23T01:51:20.593Z,0.00
2018-09-23T01:52:20.583Z,0.00
2018-09-23T01:53:20.595Z,0.00
2018-09-23T01:54:20.558Z,0.00
2018-09-23T01:55:20.600Z,0.00
2018-09-23T01:56:20.536Z,0.00
2018-09-23T01:57:20.550Z,0.00
2018-09-23T01:58:20.529Z,0.00
2018-09-23T01:59:20.503Z,0.00
2018-09-23T02:00:20.492Z,0.00
2018-09-23T02:01:20.481Z,0.00
2018-09-23T02:02:20.517Z,0.00
2018-09-23T02:03:20.458Z,0.00
2018-09-23T02:04:20.481Z,0.00
2018-09-23T02:05:20.441Z,0.00
2018-09-23T02:06:20.424Z,0.00
2018-09-23T02:07:20.414Z,0.00
2018-09-23T02:08:20.402Z,0.00
2018-09-23T02:09:20.428Z,0.00
2018-09-23T02:10:20.396Z,0.00
2018-09-23T02:11:20.370Z,0.00
2018-09-23T02:12:20.374Z,0.00
2018-09-23T02:13:20.372Z,0.00
2018-09-23T02:14:20.336Z,0.00
2018-09-23T02:15:20.343Z,0.00
2018-09-23T02:16:20.313Z,0.00
2018-09-23T02:17:20.302Z,0.00
2018-09-23T02:18:20.294Z,0.00
2018-09-23T02:19:20.281Z,0.00
2018-09-23T02:20:20.293Z,0.00
2018-09-23T02:21:20.387Z,0.00
2018-09-23T02:22:20.248Z,0.00
2018-09-23T02:23:20.239Z,0.00
2018-09-23T02:24:20.251Z,0.00
2018-09-23T02:25:20.244Z,0.00
2018-09-23T02:26:20.203Z,0.00
2018-09-23T02:27:20.194Z,0.00
2018-09-23T02:28:20.187Z,0.00
2018-09-23T02:29:20.169Z,0.00
2018-09-23T02:30:20.182Z,0.00
2018-09-23T02:31:20.145Z,0.00
2018-09-23T02:32:20.151Z,0.00
2018-09-23T02:33:20.190Z,0.00
2018-09-23T02:34:20.163Z,0.00
2018-09-23T02:35:20.205Z,0.00
2018-09-23T02:36:20.114Z,0.00
2018-09-23T02:37:20.202Z,0.00
2018-09-23T02:38:20.068Z,0.00
2018-09-23T02:39:20.063Z,0.00
2018-09-23T02:40:20.046Z,0.00
2018-09-23T02:41:20.060Z,0.00
2018-09-23T02:42:20.024Z,0.00
2018-09-23T02:43:20.012Z,0.00
2018-09-23T02:44:20.002Z,0.00
2018-09-23T02:45:19.995Z,0.00
2018-09-23T02:46:20.006Z,0.00
2018-09-23T02:47:19.968Z,0.00
2018-09-23T02:48:19.957Z,0.00
2018-09-23T02:49:19.948Z,0.00
2018-09-23T02:50:19.936Z,0.00
2018-09-23T02:51:20.021Z,0.00
2018-09-23T02:52:19.941Z,0.00
2018-09-23T02:53:19.900Z,0.00
2018-09-23T02:54:19.890Z,0.00
2018-09-23T02:55:19.878Z,0.00
2018-09-23T02:56:19.907Z,0.00
2018-09-23T02:57:19.857Z,0.00
2018-09-23T02:58:19.870Z,0.00
2018-09-23T02:59:19.834Z,0.00
2018-09-23T03:00:19.822Z,0.00
2018-09-23T03:01:19.841Z,0.00
2018-09-23T03:02:19.840Z,0.00
2018-09-23T03:03:19.793Z,0.00
2018-09-23T03:04:19.777Z,0.00
2018-09-23T03:05:19.766Z,0.00
2018-09-23T03:06:19.757Z,0.00
2018-09-23T03:07:19.787Z,0.00
2018-09-23T03:08:19.734Z,0.00
2018-09-23T03:09:19.794Z,0.00
2018-09-23T03:10:19.712Z,0.00
2018-09-23T03:11:19.698Z,0.00
2018-09-23T03:12:19.763Z,0.00
2018-09-23T03:13:19.679Z,0.00
2018-09-23T03:14:19.668Z,0.00
2018-09-23T03:15:19.879Z,0.00
2018-09-23T03:16:19.657Z,0.00
2018-09-23T03:17:19.679Z,0.00
2018-09-23T03:18:19.664Z,0.00
2018-09-23T03:19:19.609Z,0.00
2018-09-23T03:20:19.612Z,0.00
2018-09-23T03:21:19.588Z,0.00
2018-09-23T03:22:19.579Z,0.00
2018-09-23T03:23:19.590Z,0.00
2018-09-23T03:24:19.601Z,0.00
2018-09-23T03:25:19.544Z,0.00
2018-09-23T03:26:19.531Z,0.00
2018-09-23T03:27:19.547Z,0.00
2018-09-23T03:28:19.536Z,0.00
2018-09-23T03:29:19.499Z,0.00
2018-09-23T03:30:19.544Z,0.00
2018-09-23T03:31:19.477Z,0.00
2018-09-23T03:32:19.491Z,0.00
2018-09-23T03:33:19.453Z,0.00
2018-09-23T03:34:19.442Z,0.00
2018-09-23T03:35:19.460Z,0.00
2018-09-23T03:36:19.421Z,0.00
2018-09-23T03:37:19.410Z,0.00
2018-09-23T03:38:19.422Z,0.00
2018-09-23T03:39:19.388Z,0.00
2018-09-23T03:40:19.402Z,0.00
2018-09-23T03:41:19.365Z,0.00
2018-09-23T03:42:19.354Z,0.00
2018-09-23T03:43:19.343Z,0.00
2018-09-23T03:44:19.331Z,0.00
2018-09-23T03:45:19.345Z,0.00
2018-09-23T03:46:19.309Z,0.00
2018-09-23T03:47:19.338Z,0.00
2018-09-23T03:48:19.318Z,0.00
2018-09-23T03:49:19.275Z,0.00
2018-09-23T03:50:19.291Z,0.00
2018-09-23T03:51:19.252Z,0.00
2018-09-23T03:52:19.245Z,0.00
2018-09-23T03:53:19.322Z,0.00
2018-09-23T03:54:19.220Z,0.00
2018-09-23T03:55:19.209Z,0.00
2018-09-23T03:56:19.238Z,0.00
2018-09-23T03:57:19.213Z,0.00
2018-09-23T03:58:19.209Z,0.00
2018-09-23T03:59:19.301Z,0.00
2018-09-23T04:00:19.207Z,0.00
2018-09-23T04:01:19.171Z,0.00
2018-09-23T04:02:19.166Z,0.00
2018-09-23T04:03:19.121Z,0.00
2018-09-23T04:04:19.109Z,0.00
2018-09-23T04:05:19.099Z,0.00
2018-09-23T04:06:19.086Z,0.00
2018-09-23T04:07:19.118Z,0.00
2018-09-23T04:08:19.091Z,0.00
2018-09-23T04:09:19.054Z,0.00
2018-09-23T04:10:19.042Z,0.00
2018-09-23T04:11:19.031Z,0.00
2018-09-23T04:12:19.098Z,0.00
2018-09-23T04:13:19.012Z,0.00
2018-09-23T04:14:19.024Z,0.00
2018-09-23T04:15:19.003Z,0.00
2018-09-23T04:16:18.974Z,0.00
2018-09-23T04:17:18.969Z,0.00
2018-09-23T04:18:19.047Z,0.00
2018-09-23T04:19:18.946Z,0.00
2018-09-23T04:20:18.956Z,0.00
2018-09-23T04:21:18.970Z,0.00
2018-09-23T04:22:18.907Z,0.00
2018-09-23T04:23:18.898Z,0.00
2018-09-23T04:24:18.885Z,0.00
2018-09-23T04:25:18.922Z,0.00
2018-09-23T04:26:18.863Z,0.00
2018-09-23T04:27:18.852Z,0.00
2018-09-23T04:28:18.847Z,0.00
2018-09-23T04:29:18.890Z,0.00
2018-09-23T04:30:18.819Z,0.00
2018-09-23T04:31:18.815Z,0.00
2018-09-23T04:32:18.802Z,0.00
2018-09-23T04:33:18.787Z,0.00
2018-09-23T04:34:18.800Z,0.00
2018-09-23T04:35:18.798Z,0.00
2018-09-23T04:36:18.752Z,0.00
2018-09-23T04:37:18.740Z,0.00
2018-09-23T04:38:18.729Z,0.00
2018-09-23T04:39:18.743Z,0.00
2018-09-23T04:40:18.718Z,0.00
2018-09-23T04:41:18.695Z,0.00
2018-09-23T04:42:18.684Z,0.00
2018-09-23T04:43:18.699Z,0.00
2018-09-23T04:44:18.688Z,0.00
2018-09-23T04:45:18.651Z,0.00
2018-09-23T04:46:18.640Z,0.00
2018-09-23T04:47:18.627Z,0.00
2018-09-23T04:48:18.616Z,0.00
2018-09-23T04:49:18.677Z,0.00
2018-09-23T04:50:18.597Z,0.00
2018-09-23T04:51:18.583Z,0.00
2018-09-23T04:52:18.596Z,0.00
2018-09-23T04:53:18.560Z,0.00
2018-09-23T04:54:18.574Z,0.00
2018-09-23T04:55:18.629Z,0.00
2018-09-23T04:56:18.531Z,0.00
2018-09-23T04:57:18.546Z,0.00
2018-09-23T04:58:18.509Z,0.00
2018-09-23T04:59:18.519Z,0.00
2018-09-23T05:00:18.483Z,0.00
2018-09-23T05:01:18.476Z,0.00
2018-09-23T05:02:18.489Z,0.00
2018-09-23T05:03:18.450Z,0.00
2018-09-23T05:04:18.631Z,0.00
2018-09-23T05:05:18.426Z,4.00
2018-09-23T05:06:18.417Z,4.00
2018-09-23T05:07:18.432Z,4.00
2018-09-23T05:08:18.393Z,4.00
2018-09-23T05:09:18.414Z,4.00
2018-09-23T05:10:18.372Z,0.00
2018-09-23T05:11:18.360Z,4.00
2018-09-23T05:12:18.352Z,4.00
2018-09-23T05:13:18.429Z,4.00
2018-09-23T05:14:18.327Z,4.00
2018-09-23T05:15:18.351Z,4.00
2018-09-23T05:16:18.309Z,4.00
2018-09-23T05:17:18.297Z,4.00
2018-09-23T05:18:18.325Z,4.00
2018-09-23T05:19:18.272Z,4.00
2018-09-23T05:20:18.259Z,4.00
2018-09-23T05:21:18.250Z,4.00
2018-09-23T05:22:18.236Z,8.00
2018-09-23T05:23:18.278Z,8.00
2018-09-23T05:24:18.242Z,8.00
2018-09-23T05:25:18.210Z,8.00
2018-09-23T05:26:18.196Z,4.00
2018-09-23T05:27:18.185Z,8.00
2018-09-23T05:28:18.205Z,8.00
2018-09-23T05:29:18.159Z,8.00
2018-09-23T05:30:18.166Z,8.00
2018-09-23T05:31:18.138Z,12.00
2018-09-23T05:32:18.126Z,12.00
2018-09-23T05:33:18.150Z,8.00
2018-09-23T05:34:18.107Z,12.00
2018-09-23T05:35:18.121Z,12.00
2018-09-23T05:36:18.081Z,12.00
2018-09-23T05:37:18.071Z,12.00
2018-09-23T05:38:18.139Z,12.00
2018-09-23T05:39:18.048Z,16.00
2018-09-23T05:40:18.069Z,16.00
2018-09-23T05:41:18.026Z,12.00
2018-09-23T05:42:18.014Z,20.00
2018-09-23T05:43:18.003Z,20.00
2018-09-23T05:44:17.992Z,20.00
2018-09-23T05:45:18.007Z,20.00
2018-09-23T05:46:17.969Z,20.00
2018-09-23T05:47:17.958Z,16.00
2018-09-23T05:48:17.947Z,16.00
2018-09-23T05:49:17.936Z,28.00
2018-09-23T05:50:18.047Z,24.00
2018-09-23T05:51:17.915Z,20.00
2018-09-23T05:52:17.903Z,32.00
2018-09-23T05:53:17.935Z,40.00
2018-09-23T05:54:17.911Z,44.00
2018-09-23T05:55:17.916Z,44.00
2018-09-23T05:56:17.878Z,44.00
2018-09-23T05:57:17.846Z,36.00
2018-09-23T05:58:17.860Z,40.00
2018-09-23T05:59:17.825Z,40.00
2018-09-23T06:00:17.814Z,40.00
2018-09-23T06:01:17.847Z,36.00
2018-09-23T06:02:17.791Z,36.00
2018-09-23T06:03:17.839Z,40.00
2018-09-23T06:04:17.770Z,40.00
2018-09-23T06:05:17.757Z,44.00
2018-09-23T06:06:17.771Z,48.00
2018-09-23T06:07:17.735Z,40.00
2018-09-23T06:08:17.726Z,36.00
2018-09-23T06:09:17.742Z,32.00
2018-09-23T06:10:17.702Z,32.00
2018-09-23T06:11:17.750Z,28.00
2018-09-23T06:12:17.679Z,24.00
2018-09-23T06:13:17.668Z,20.00
2018-09-23T06:14:17.683Z,24.00
2018-09-23T06:15:17.650Z,24.00
2018-09-23T06:16:17.636Z,24.00
2018-09-23T06:17:17.625Z,24.00
2018-09-23T06:18:17.651Z,28.00
2018-09-23T06:19:17.603Z,32.00
2018-09-23T06:20:17.591Z,36.00
2018-09-23T06:21:17.605Z,44.00
2018-09-23T06:22:17.569Z,48.00
2018-09-23T06:23:17.583Z,48.00
2018-09-23T06:24:17.546Z,60.00
2018-09-23T06:25:17.651Z,68.00
2018-09-23T06:26:17.567Z,72.00
2018-09-23T06:27:17.523Z,68.00
2018-09-23T06:28:17.502Z,68.00
2018-09-23T06:29:17.494Z,60.00
2018-09-23T06:30:17.482Z,60.00
2018-09-23T06:31:17.496Z,60.00
2018-09-23T06:32:17.458Z,56.00
2018-09-23T06:33:17.478Z,60.00
2018-09-23T06:34:17.470Z,68.00
2018-09-23T06:35:17.450Z,76.00
2018-09-23T06:36:17.438Z,88.00
2018-09-23T06:37:17.426Z,84.00
2018-09-23T06:38:17.392Z,88.00
2018-09-23T06:39:17.380Z,76.00
2018-09-23T06:40:17.383Z,76.00
2018-09-23T06:41:17.381Z,72.00
2018-09-23T06:42:17.345Z,76.00
2018-09-23T06:43:17.334Z,84.00
2018-09-23T06:44:17.323Z,80.00
2018-09-23T06:45:17.313Z,72.00
2018-09-23T06:46:17.375Z,68.00
2018-09-23T06:47:17.289Z,60.00
2018-09-23T06:48:17.279Z,56.00
2018-09-23T06:49:17.273Z,60.00
2018-09-23T06:50:17.256Z,76.00
2018-09-23T06:51:17.272Z,108.00
2018-09-23T06:52:17.233Z,120.00
2018-09-23T06:53:17.234Z,124.00
2018-09-23T06:54:17.212Z,116.00
2018-09-23T06:55:17.210Z,120.00
2018-09-23T06:56:17.218Z,112.00
2018-09-23T06:57:17.217Z,100.00
2018-09-23T06:58:17.170Z,84.00
2018-09-23T06:59:17.156Z,104.00
2018-09-23T07:00:17.169Z,140.00
2018-09-23T07:01:17.190Z,176.00
2018-09-23T07:02:17.149Z,192.00
2018-09-23T07:03:17.111Z,192.00
2018-09-23T07:04:17.100Z,168.00
2018-09-23T07:05:17.090Z,140.00
2018-09-23T07:06:17.077Z,128.00
2018-09-23T07:07:17.092Z,116.00
2018-09-23T07:08:17.055Z,108.00
2018-09-23T07:09:17.044Z,116.00
2018-09-23T07:10:17.065Z,128.00
2018-09-23T07:11:17.021Z,136.00
2018-09-23T07:12:17.036Z,136.00
2018-09-23T07:13:17.000Z,144.00
2018-09-23T07:14:16.990Z,156.00
2018-09-23T07:15:16.977Z,160.00
2018-09-23T07:16:16.989Z,156.00
2018-09-23T07:17:16.984Z,156.00
2018-09-23T07:18:16.943Z,140.00
2018-09-23T07:19:16.954Z,140.00
2018-09-23T07:20:16.923Z,144.00
2018-09-23T07:21:16.937Z,136.00
2018-09-23T07:22:16.902Z,136.00
2018-09-23T07:23:16.888Z,136.00
2018-09-23T07:24:16.996Z,132.00
2018-09-23T07:25:16.953Z,132.00
2018-09-23T07:26:16.854Z,136.00
2018-09-23T07:27:16.843Z,148.00
2018-09-23T07:28:16.868Z,164.00
2018-09-23T07:29:16.821Z,160.00
2018-09-23T07:30:16.854Z,172.00
2018-09-23T07:31:16.816Z,176.00
2018-09-23T07:32:16.787Z,196.00
2018-09-23T07:33:16.777Z,216.00
2018-09-23T07:34:16.765Z,228.00
2018-09-23T07:35:16.780Z,256.00
2018-09-23T07:36:16.795Z,256.00
2018-09-23T07:37:16.826Z,240.00
2018-09-23T07:38:16.722Z,204.00
2018-09-23T07:39:16.709Z,184.00
2018-09-23T07:40:16.723Z,168.00
2018-09-23T07:41:16.686Z,168.00
2018-09-23T07:42:16.713Z,172.00
2018-09-23T07:43:16.667Z,168.00
2018-09-23T07:44:16.653Z,172.00
2018-09-23T07:45:16.684Z,180.00
2018-09-23T07:46:16.657Z,192.00
2018-09-23T07:47:16.622Z,204.00
2018-09-23T07:48:16.609Z,204.00
2018-09-23T07:49:16.596Z,204.00
2018-09-23T07:50:16.657Z,200.00
2018-09-23T07:51:16.574Z,212.00
2018-09-23T07:52:16.612Z,232.00
2018-09-23T07:53:16.551Z,252.00
2018-09-23T07:54:16.541Z,244.00
2018-09-23T07:55:16.530Z,248.00
2018-09-23T07:56:16.531Z,232.00
2018-09-23T07:57:16.547Z,212.00
2018-09-23T07:58:16.497Z,184.00
2018-09-23T07:59:16.486Z,184.00
2018-09-23T08:00:16.474Z,196.00
2018-09-23T08:01:16.462Z,208.00
2018-09-23T08:02:16.494Z,224.00
2018-09-23T08:03:16.446Z,220.00
2018-09-23T08:04:16.445Z,196.00
2018-09-23T08:05:16.417Z,200.00
2018-09-23T08:06:16.407Z,204.00
2018-09-23T08:07:16.423Z,224.00
2018-09-23T08:08:16.384Z,264.00
2018-09-23T08:09:16.408Z,300.00
2018-09-23T08:10:16.362Z,304.00
2018-09-23T08:11:16.352Z,296.00
2018-09-23T08:12:16.343Z,284.00
2018-09-23T08:13:16.381Z,296.00
2018-09-23T08:14:16.746Z,304.00
2018-09-23T08:15:16.309Z,292.00
2018-09-23T08:16:16.296Z,316.00
2018-09-23T08:17:16.325Z,304.00
2018-09-23T08:18:16.318Z,292.00
2018-09-23T08:19:16.326Z,288.00
2018-09-23T08:20:16.412Z,296.00
2018-09-23T08:21:16.271Z,280.00
2018-09-23T08:22:16.228Z,272.00
2018-09-23T08:23:16.273Z,264.00
2018-09-23T08:24:16.208Z,252.00
2018-09-23T08:25:16.248Z,272.00
2018-09-23T08:26:16.247Z,276.00
2018-09-23T08:27:16.172Z,276.00
2018-09-23T08:28:16.167Z,248.00
2018-09-23T08:29:16.170Z,216.00
2018-09-23T08:30:16.139Z,228.00
2018-09-23T08:31:16.154Z,260.00
2018-09-23T08:32:16.143Z,236.00
2018-09-23T08:33:16.105Z,224.00
2018-09-23T08:34:16.096Z,220.00
2018-09-23T08:35:16.082Z,236.00
2018-09-23T08:36:16.072Z,240.00
2018-09-23T08:37:16.126Z,272.00
2018-09-23T08:38:16.055Z,264.00
2018-09-23T08:39:16.038Z,256.00
2018-09-23T08:40:16.029Z,296.00
2018-09-23T08:41:16.017Z,288.00
2018-09-23T08:42:16.031Z,240.00
2018-09-23T08:43:16.353Z,212.00
2018-09-23T08:44:16.018Z,216.00
2018-09-23T08:45:16.043Z,228.00
2018-09-23T08:46:15.962Z,240.00
2018-09-23T08:47:15.975Z,252.00
2018-09-23T08:48:15.985Z,268.00
2018-09-23T08:49:15.987Z,296.00
2018-09-23T08:50:15.914Z,308.00
2018-09-23T08:51:15.904Z,300.00
2018-09-23T08:52:15.961Z,280.00
2018-09-23T08:53:15.883Z,252.00
2018-09-23T08:54:15.904Z,256.00
2018-09-23T08:55:15.860Z,288.00
2018-09-23T08:56:15.855Z,316.00
2018-09-23T08:57:15.848Z,316.00
2018-09-23T08:58:15.825Z,304.00
2018-09-23T08:59:15.840Z,276.00
2018-09-23T09:00:15.828Z,256.00
2018-09-23T09:01:15.801Z,272.00
2018-09-23T09:02:15.804Z,268.00
2018-09-23T09:03:15.769Z,256.00
2018-09-23T09:04:15.758Z,248.00
2018-09-23T09:05:15.776Z,236.00
2018-09-23T09:06:15.739Z,220.00
2018-09-23T09:07:15.725Z,224.00
2018-09-23T09:08:15.716Z,240.00
2018-09-23T09:09:15.703Z,260.00
2018-09-23T09:10:15.721Z,256.00
2018-09-23T09:11:15.679Z,248.00
2018-09-23T09:12:15.690Z,232.00
2018-09-23T09:13:15.662Z,228.00
2018-09-23T09:14:15.674Z,236.00
2018-09-23T09:15:15.635Z,252.00
2018-09-23T09:16:15.663Z,244.00
2018-09-23T09:17:15.614Z,252.00
2018-09-23T09:18:15.645Z,292.00
2018-09-23T09:19:15.592Z,344.00
2018-09-23T09:20:15.621Z,336.00
2018-09-23T09:21:15.569Z,320.00
2018-09-23T09:22:15.559Z,332.00
2018-09-23T09:23:15.547Z,376.00
2018-09-23T09:24:15.536Z,412.00
2018-09-23T09:25:15.550Z,372.00
2018-09-23T09:26:15.537Z,336.00
2018-09-23T09:27:15.501Z,348.00
2018-09-23T09:28:15.491Z,364.00
2018-09-23T09:29:15.479Z,364.00
2018-09-23T09:30:15.476Z,360.00
2018-09-23T09:31:15.558Z,396.00
2018-09-23T09:32:15.471Z,412.00
2018-09-23T09:33:15.435Z,448.00
2018-09-23T09:34:15.425Z,488.00
2018-09-23T09:35:15.443Z,500.00
2018-09-23T09:36:15.425Z,492.00
2018-09-23T09:37:15.391Z,456.00
2018-09-23T09:38:15.381Z,436.00
2018-09-23T09:39:15.366Z,444.00
2018-09-23T09:40:15.388Z,484.00
2018-09-23T09:41:15.374Z,508.00
2018-09-23T09:42:15.335Z,444.00
2018-09-23T09:43:15.324Z,448.00
2018-09-23T09:44:15.312Z,368.00
2018-09-23T09:45:15.324Z,300.00
2018-09-23T09:46:15.290Z,252.00
2018-09-23T09:47:15.343Z,232.00
2018-09-23T09:48:15.268Z,216.00
2018-09-23T09:49:15.281Z,196.00
2018-09-23T09:50:15.245Z,224.00
2018-09-23T09:51:15.233Z,264.00
2018-09-23T09:52:15.222Z,300.00
2018-09-23T09:53:15.214Z,344.00
2018-09-23T09:54:15.229Z,308.00
2018-09-23T09:55:15.206Z,292.00
2018-09-23T09:56:15.179Z,300.00
2018-09-23T09:57:15.166Z,292.00
2018-09-23T09:58:15.155Z,260.00
2018-09-23T09:59:15.181Z,296.00
2018-09-23T10:00:15.133Z,372.00
2018-09-23T10:01:15.132Z,452.00
2018-09-23T10:02:15.109Z,472.00
2018-09-23T10:03:15.128Z,460.00
2018-09-23T10:04:15.175Z,428.00
2018-09-23T10:05:15.104Z,424.00
2018-09-23T10:06:15.107Z,448.00
2018-09-23T10:07:15.075Z,440.00
2018-09-23T10:08:15.100Z,460.00
2018-09-23T10:09:15.033Z,460.00
2018-09-23T10:10:15.067Z,448.00
2018-09-23T10:11:15.009Z,492.00
2018-09-23T10:12:14.998Z,432.00
2018-09-23T10:13:14.988Z,384.00
2018-09-23T10:14:14.975Z,384.00
2018-09-23T10:15:15.008Z,368.00
2018-09-23T10:16:14.953Z,364.00
2018-09-23T10:17:14.942Z,364.00
2018-09-23T10:18:14.953Z,336.00
2018-09-23T10:19:14.920Z,308.00
2018-09-23T10:20:14.952Z,292.00
2018-09-23T10:21:14.898Z,268.00
2018-09-23T10:22:14.888Z,248.00
2018-09-23T10:23:15.026Z,260.00
2018-09-23T10:24:14.866Z,316.00
2018-09-23T10:25:14.878Z,432.00
2018-09-23T10:26:14.844Z,568.00
2018-09-23T10:27:14.837Z,612.00
2018-09-23T10:28:14.820Z,700.00
2018-09-23T10:29:14.810Z,756.00
2018-09-23T10:30:14.822Z,816.00
2018-09-23T10:31:14.951Z,776.00
2018-09-23T10:32:14.775Z,668.00
2018-09-23T10:33:14.767Z,644.00
2018-09-23T10:34:14.753Z,756.00
2018-09-23T10:35:14.743Z,768.00
2018-09-23T10:36:14.760Z,688.00
2018-09-23T10:37:14.722Z,664.00
2018-09-23T10:38:14.730Z,732.00
2018-09-23T10:39:14.696Z,712.00
2018-09-23T10:40:14.695Z,688.00
2018-09-23T10:41:14.732Z,668.00
2018-09-23T10:42:14.663Z,676.00
2018-09-23T10:43:14.651Z,596.00
2018-09-23T10:44:14.641Z,532.00
2018-09-23T10:45:14.661Z,500.00
2018-09-23T10:46:14.662Z,476.00
2018-09-23T10:47:14.607Z,432.00
2018-09-23T10:48:14.597Z,460.00
2018-09-23T10:49:14.586Z,592.00
2018-09-23T10:50:14.575Z,576.00
2018-09-23T10:51:14.588Z,468.00
2018-09-23T10:52:14.550Z,468.00
2018-09-23T10:53:14.540Z,412.00
2018-09-23T10:54:14.534Z,360.00
2018-09-23T10:55:14.520Z,348.00
2018-09-23T10:56:14.532Z,344.00
2018-09-23T10:57:14.544Z,324.00
2018-09-23T10:58:14.484Z,320.00
2018-09-23T10:59:14.475Z,324.00
2018-09-23T11:00:14.463Z,328.00
2018-09-23T11:01:14.450Z,344.00
2018-09-23T11:02:14.478Z,344.00
2018-09-23T11:03:14.429Z,316.00
2018-09-23T11:04:14.467Z,256.00
2018-09-23T11:05:14.406Z,208.00
2018-09-23T11:06:14.395Z,188.00
2018-09-23T11:07:14.549Z,188.00
2018-09-23T11:08:14.378Z,184.00
2018-09-23T11:09:14.368Z,164.00
2018-09-23T11:10:14.351Z,132.00
2018-09-23T11:11:14.339Z,120.00
2018-09-23T11:12:14.406Z,124.00
2018-09-23T11:13:14.339Z,124.00
2018-09-23T11:14:14.306Z,136.00
2018-09-23T11:15:14.330Z,160.00
2018-09-23T11:16:14.286Z,168.00
2018-09-23T11:17:14.299Z,164.00
2018-09-23T11:18:14.261Z,160.00
2018-09-23T11:19:14.286Z,156.00
2018-09-23T11:20:14.290Z,148.00
2018-09-23T11:21:14.230Z,132.00
2018-09-23T11:22:14.278Z,116.00
2018-09-23T11:23:14.303Z,96.00
2018-09-23T11:24:14.261Z,76.00
2018-09-23T11:25:14.182Z,64.00
2018-09-23T11:26:14.241Z,56.00
2018-09-23T11:27:14.160Z,52.00
2018-09-23T11:28:14.212Z,48.00
2018-09-23T11:29:14.137Z,48.00
2018-09-23T11:30:14.173Z,44.00
2018-09-23T11:31:14.157Z,52.00
2018-09-23T11:32:14.104Z,60.00
2018-09-23T11:33:14.093Z,76.00
2018-09-23T11:34:14.081Z,72.00
2018-09-23T11:35:14.071Z,76.00
2018-09-23T11:36:14.117Z,104.00
2018-09-23T11:37:14.048Z,116.00
2018-09-23T11:38:14.037Z,112.00
2018-09-23T11:39:14.027Z,116.00
2018-09-23T11:40:14.014Z,132.00
2018-09-23T11:41:14.098Z,144.00
2018-09-23T11:42:14.042Z,156.00
2018-09-23T11:43:14.047Z,168.00
2018-09-23T11:44:13.973Z,184.00
2018-09-23T11:45:13.958Z,172.00
2018-09-23T11:46:13.979Z,156.00
2018-09-23T11:47:13.982Z,164.00
2018-09-23T11:48:13.926Z,180.00
2018-09-23T11:49:13.914Z,196.00
2018-09-23T11:50:13.904Z,212.00
2018-09-23T11:51:13.892Z,220.00
2018-09-23T11:52:13.909Z,240.00
2018-09-23T11:53:13.879Z,256.00
2018-09-23T11:54:13.882Z,256.00
2018-09-23T11:55:13.848Z,248.00
2018-09-23T11:56:13.849Z,280.00
2018-09-23T11:57:13.825Z,236.00
2018-09-23T11:58:13.814Z,192.00
2018-09-23T11:59:13.995Z,164.00
2018-09-23T12:00:13.792Z,176.00
2018-09-23T12:01:13.781Z,180.00
2018-09-23T12:02:13.896Z,196.00
2018-09-23T12:03:13.759Z,172.00
2018-09-23T12:04:13.791Z,140.00
2018-09-23T12:05:13.735Z,100.00
2018-09-23T12:06:13.759Z,76.00
2018-09-23T12:07:13.722Z,60.00
2018-09-23T12:08:13.703Z,48.00
2018-09-23T12:09:13.716Z,44.00
2018-09-23T12:10:13.700Z,48.00
2018-09-23T12:11:13.670Z,48.00
2018-09-23T12:12:13.694Z,44.00
2018-09-23T12:13:13.704Z,40.00
2018-09-23T12:14:13.636Z,36.00
2018-09-23T12:15:13.625Z,28.00
2018-09-23T12:16:13.614Z,24.00
2018-09-23T12:17:13.652Z,28.00
2018-09-23T12:18:13.592Z,28.00
2018-09-23T12:19:13.582Z,28.00
2018-09-23T12:20:13.568Z,28.00
2018-09-23T12:21:13.557Z,28.00
2018-09-23T12:22:13.683Z,28.00
2018-09-23T12:23:14.436Z,28.00
2018-09-23T12:24:13.525Z,24.00
2018-09-23T12:25:13.534Z,24.00
2018-09-23T12:26:13.505Z,28.00
2018-09-23T12:27:13.516Z,28.00
2018-09-23T12:28:13.505Z,36.00
2018-09-23T12:29:13.467Z,40.00
2018-09-23T12:30:13.456Z,48.00
2018-09-23T12:31:13.448Z,56.00
2018-09-23T12:32:13.435Z,60.00
2018-09-23T12:33:13.504Z,60.00
2018-09-23T12:34:13.413Z,72.00
2018-09-23T12:35:13.402Z,76.00
2018-09-23T12:36:13.390Z,68.00
2018-09-23T12:37:13.420Z,68.00
2018-09-23T12:38:13.393Z,60.00
2018-09-23T12:39:13.357Z,60.00
2018-09-23T12:40:13.349Z,56.00
2018-09-23T12:41:13.363Z,48.00
2018-09-23T12:42:13.399Z,44.00
2018-09-23T12:43:13.323Z,40.00
2018-09-23T12:44:13.315Z,44.00
2018-09-23T12:45:13.289Z,52.00
2018-09-23T12:46:13.316Z,68.00
2018-09-23T12:47:13.304Z,80.00
2018-09-23T12:48:13.305Z,80.00
2018-09-23T12:49:13.245Z,68.00
2018-09-23T12:50:13.262Z,84.00
2018-09-23T12:51:13.223Z,104.00
2018-09-23T12:52:13.210Z,96.00
2018-09-23T12:53:13.241Z,92.00